createdAt,value
2022-08-21T00:00:14.089Z,16.67
2022-08-21T00:02:49.606Z,16.56
2022-08-21T00:05:17.486Z,16.45
2022-08-21T00:07:45.458Z,16.49
2022-08-21T00:10:13.667Z,16.45
2022-08-21T00:12:42.979Z,16.42
2022-08-21T00:15:13.084Z,16.33
2022-08-21T00:17:42.162Z,16.27
2022-08-21T00:20:12.040Z,16.35
2022-08-21T00:22:40.071Z,16.43
2022-08-21T00:25:09.832Z,16.42
2022-08-21T00:27:38.452Z,16.39
2022-08-21T00:30:09.320Z,16.40
2022-08-21T00:32:39.737Z,16.24
2022-08-21T00:35:10.528Z,15.95
2022-08-21T00:37:38.340Z,15.85
2022-08-21T00:40:08.363Z,15.83
2022-08-21T00:42:37.436Z,15.86
2022-08-21T00:45:08.934Z,15.89
2022-08-21T00:47:36.948Z,15.88
2022-08-21T00:50:06.189Z,15.68
2022-08-21T00:52:36.357Z,15.50
2022-08-21T00:55:06.100Z,15.43
2022-08-21T00:57:41.593Z,15.34
2022-08-21T01:00:17.138Z,15.18
2022-08-21T01:02:44.824Z,15.26
2022-08-21T01:05:13.262Z,15.22
2022-08-21T01:07:41.341Z,15.14
2022-08-21T01:10:10.338Z,15.28
2022-08-21T01:12:53.818Z,15.23
2022-08-21T01:15:25.151Z,15.10
2022-08-21T01:17:54.603Z,15.07
2022-08-21T01:20:22.492Z,15.05
2022-08-21T01:23:01.823Z,15.06
2022-08-21T01:25:29.806Z,15.13
2022-08-21T01:27:59.688Z,15.18
2022-08-21T01:30:29.539Z,15.26
2022-08-21T01:32:58.257Z,15.17
2022-08-21T01:35:26.391Z,15.11
2022-08-21T01:37:54.149Z,15.11
2022-08-21T01:40:23.742Z,15.05
2022-08-21T01:42:52.117Z,15.06
2022-08-21T01:45:20.014Z,15.06
2022-08-21T01:47:48.085Z,15.05
2022-08-21T01:50:20.998Z,14.93
2022-08-21T01:52:49.157Z,14.86
2022-08-21T01:55:18.823Z,14.89
2022-08-21T01:57:48.909Z,14.81
2022-08-21T02:00:18.517Z,14.80
2022-08-21T02:02:46.534Z,14.81
2022-08-21T02:05:15.696Z,14.74
2022-08-21T02:07:46.156Z,14.61
2022-08-21T02:10:17.537Z,14.68
2022-08-21T02:12:45.421Z,14.64
2022-08-21T02:15:15.055Z,14.63
2022-08-21T02:17:47.085Z,14.57
2022-08-21T02:20:19.820Z,14.52
2022-08-21T02:22:47.689Z,14.42
2022-08-21T02:25:15.987Z,14.43
2022-08-21T02:27:45.775Z,14.40
2022-08-21T02:30:18.753Z,14.42
2022-08-21T02:32:46.604Z,14.36
2022-08-21T02:35:15.113Z,14.35
2022-08-21T02:37:48.817Z,14.23
2022-08-21T02:40:18.313Z,14.18
2022-08-21T02:42:46.641Z,14.18
2022-08-21T02:45:17.246Z,14.20
2022-08-21T02:47:50.265Z,14.10
2022-08-21T02:50:21.450Z,14.14
2022-08-21T02:52:51.913Z,14.11
2022-08-21T02:55:24.160Z,14.08
2022-08-21T02:57:52.114Z,13.99
2022-08-21T03:00:22.464Z,13.97
2022-08-21T03:02:52.573Z,13.92
2022-08-21T03:05:21.051Z,13.89
2022-08-21T03:07:51.002Z,13.88
2022-08-21T03:10:18.836Z,13.92
2022-08-21T03:12:46.794Z,13.99
2022-08-21T03:15:18.074Z,13.98
2022-08-21T03:17:48.841Z,13.86
2022-08-21T03:20:19.040Z,13.88
2022-08-21T03:22:53.001Z,13.83
2022-08-21T03:25:40.048Z,13.80
2022-08-21T03:28:13.010Z,13.63
2022-08-21T03:30:41.745Z,13.60
2022-08-21T03:33:13.159Z,13.65
2022-08-21T03:35:45.032Z,13.61
2022-08-21T03:38:13.858Z,13.51
2022-08-21T03:40:42.162Z,13.55
2022-08-21T03:43:10.515Z,13.58
2022-08-21T03:45:39.271Z,13.63
2022-08-21T03:48:10.029Z,13.50
2022-08-21T03:50:42.438Z,13.52
2022-08-21T03:53:16.873Z,13.58
2022-08-21T03:55:46.510Z,13.57
2022-08-21T03:58:16.984Z,13.51
2022-08-21T04:00:46.076Z,13.43
2022-08-21T04:03:14.324Z,13.48
2022-08-21T04:05:46.295Z,13.45
2022-08-21T04:08:15.345Z,13.40
2022-08-21T04:10:44.738Z,13.49
2022-08-21T04:13:12.542Z,13.41
2022-08-21T04:15:41.727Z,13.40
2022-08-21T04:18:10.206Z,13.39
2022-08-21T04:20:38.284Z,13.40
2022-08-21T04:23:08.757Z,13.30
2022-08-21T04:25:37.424Z,13.31
2022-08-21T04:28:05.618Z,13.29
2022-08-21T04:30:36.101Z,13.23
2022-08-21T04:33:03.932Z,13.17
2022-08-21T04:35:32.066Z,13.17
2022-08-21T04:38:00.036Z,13.12
2022-08-21T04:40:30.305Z,13.01
2022-08-21T04:43:02.899Z,13.03
2022-08-21T04:45:32.933Z,13.00
2022-08-21T04:48:02.871Z,13.01
2022-08-21T04:50:33.834Z,13.01
2022-08-21T04:53:06.023Z,12.93
2022-08-21T04:55:35.442Z,12.93
2022-08-21T04:58:03.806Z,12.97
2022-08-21T05:00:31.644Z,13.00
2022-08-21T05:03:02.057Z,13.02
2022-08-21T05:05:30.955Z,13.03
2022-08-21T05:08:00.334Z,13.13
2022-08-21T05:10:28.444Z,13.24
2022-08-21T05:12:58.513Z,13.21
2022-08-21T05:15:26.508Z,13.34
2022-08-21T05:18:01.579Z,13.44
2022-08-21T05:20:30.539Z,13.74
2022-08-21T05:22:58.783Z,13.79
2022-08-21T05:25:28.145Z,13.92
2022-08-21T05:27:58.157Z,14.30
2022-08-21T05:30:28.643Z,14.57
2022-08-21T05:32:59.454Z,14.74
2022-08-21T05:35:28.772Z,15.08
2022-08-21T05:37:57.947Z,15.06
2022-08-21T05:40:26.312Z,15.31
2022-08-21T05:42:55.875Z,15.63
2022-08-21T05:45:42.980Z,16.08
2022-08-21T05:48:14.488Z,16.38
2022-08-21T05:50:43.254Z,16.80
2022-08-21T05:53:12.324Z,17.05
2022-08-21T05:55:45.341Z,16.87
2022-08-21T05:58:14.186Z,16.93
2022-08-21T06:00:43.389Z,16.90
2022-08-21T06:03:16.560Z,16.99
2022-08-21T06:05:44.416Z,17.10
2022-08-21T06:08:13.223Z,17.26
2022-08-21T06:10:41.176Z,17.44
2022-08-21T06:13:09.120Z,17.16
2022-08-21T06:15:37.121Z,17.51
2022-08-21T06:18:06.727Z,18.08
2022-08-21T06:20:35.222Z,18.08
2022-08-21T06:23:03.422Z,18.39
2022-08-21T06:25:32.070Z,17.94
2022-08-21T06:28:04.082Z,17.92
2022-08-21T06:30:32.153Z,18.07
2022-08-21T06:33:00.405Z,17.89
2022-08-21T06:35:30.694Z,18.19
2022-08-21T06:37:58.933Z,18.48
2022-08-21T06:40:27.570Z,18.31
2022-08-21T06:42:59.188Z,18.52
2022-08-21T06:45:28.380Z,18.85
2022-08-21T06:48:00.929Z,18.99
2022-08-21T06:50:31.196Z,19.58
2022-08-21T06:53:04.466Z,20.57
2022-08-21T06:55:32.825Z,20.49
2022-08-21T06:58:01.420Z,20.32
2022-08-21T07:00:29.321Z,20.54
2022-08-21T07:02:57.831Z,20.78
2022-08-21T07:05:27.483Z,21.11
2022-08-21T07:07:57.947Z,21.60
2022-08-21T07:10:25.918Z,21.96
2022-08-21T07:13:00.461Z,21.52
2022-08-21T07:15:30.767Z,22.06
2022-08-21T07:17:59.374Z,22.51
2022-08-21T07:20:28.076Z,23.14
2022-08-21T07:22:58.417Z,23.46
2022-08-21T07:25:26.438Z,23.57
2022-08-21T07:27:54.699Z,24.06
2022-08-21T07:30:22.898Z,23.82
2022-08-21T07:32:51.170Z,24.36
2022-08-21T07:35:20.935Z,24.51
2022-08-21T07:37:49.474Z,24.63
2022-08-21T07:40:19.548Z,25.08
2022-08-21T07:42:52.597Z,25.31
2022-08-21T07:45:25.187Z,25.17
2022-08-21T07:47:57.263Z,25.96
2022-08-21T07:50:26.174Z,25.69
2022-08-21T07:52:54.888Z,26.72
2022-08-21T07:55:24.522Z,26.76
2022-08-21T07:57:52.428Z,27.10
2022-08-21T08:00:23.686Z,27.29
2022-08-21T08:02:54.065Z,27.55
2022-08-21T08:05:24.417Z,28.27
2022-08-21T08:07:52.271Z,28.07
2022-08-21T08:10:20.882Z,28.04
2022-08-21T08:12:52.188Z,28.45
2022-08-21T08:15:22.274Z,28.01
2022-08-21T08:17:50.371Z,28.21
2022-08-21T08:20:19.109Z,28.06
2022-08-21T08:22:50.119Z,28.53
2022-08-21T08:25:19.963Z,29.00
2022-08-21T08:27:48.165Z,29.67
2022-08-21T08:30:20.199Z,30.06
2022-08-21T08:32:50.551Z,29.31
2022-08-21T08:35:19.071Z,29.41
2022-08-21T08:37:52.245Z,29.28
2022-08-21T08:40:25.293Z,29.15
2022-08-21T08:42:53.327Z,30.21
2022-08-21T08:45:25.226Z,30.29
2022-08-21T08:47:58.797Z,30.03
2022-08-21T08:50:38.077Z,29.79
2022-08-21T08:53:08.091Z,30.88
2022-08-21T08:55:39.817Z,29.65
2022-08-21T08:58:08.715Z,29.41
2022-08-21T09:00:39.965Z,30.31
2022-08-21T09:03:07.788Z,31.04
2022-08-21T09:05:44.855Z,31.54
2022-08-21T09:08:45.280Z,32.18
2022-08-21T09:11:23.355Z,30.64
2022-08-21T09:14:00.336Z,30.02
2022-08-21T09:16:37.204Z,31.06
2022-08-21T09:19:25.139Z,32.26
2022-08-21T09:21:59.908Z,31.24
2022-08-21T09:24:34.613Z,31.47
2022-08-21T09:27:07.526Z,32.63
2022-08-21T09:29:38.676Z,32.84
2022-08-21T09:32:18.774Z,32.58
2022-08-21T09:34:59.164Z,33.22
2022-08-21T09:37:29.892Z,32.66
2022-08-21T09:39:59.419Z,31.43
2022-08-21T09:42:29.384Z,32.49
2022-08-21T09:45:15.393Z,31.10
2022-08-21T09:47:46.488Z,31.74
2022-08-21T09:50:17.648Z,32.31
2022-08-21T09:52:49.819Z,31.89
2022-08-21T09:55:50.771Z,31.57
2022-08-21T09:58:20.688Z,32.18
2022-08-21T10:00:59.657Z,32.57
2022-08-21T10:03:29.904Z,33.57
2022-08-21T10:06:01.295Z,34.12
2022-08-21T10:08:31.249Z,33.71
2022-08-21T10:11:05.207Z,34.04
2022-08-21T10:13:48.144Z,34.03
2022-08-21T10:16:29.380Z,33.69
2022-08-21T10:19:20.811Z,33.33
2022-08-21T10:22:01.493Z,34.52
2022-08-21T10:24:33.888Z,34.48
2022-08-21T10:27:16.554Z,33.79
2022-08-21T10:29:55.082Z,33.20
2022-08-21T10:32:39.582Z,34.27
2022-08-21T10:35:15.511Z,34.37
2022-08-21T10:38:00.236Z,34.00
2022-08-21T10:40:31.773Z,33.26
2022-08-21T10:43:11.403Z,32.78
2022-08-21T10:45:59.540Z,34.48
2022-08-21T10:48:31.768Z,34.08
2022-08-21T10:51:11.628Z,34.15
2022-08-21T10:53:54.927Z,32.49
2022-08-21T10:56:26.169Z,33.63
2022-08-21T10:59:06.286Z,33.42
2022-08-21T11:01:41.374Z,32.85
2022-08-21T11:04:17.811Z,33.03
2022-08-21T11:06:54.244Z,32.86
2022-08-21T11:09:26.146Z,33.63
2022-08-21T11:12:11.033Z,34.27
2022-08-21T11:14:50.261Z,33.74
2022-08-21T11:17:24.243Z,33.19
2022-08-21T11:19:59.894Z,33.62
2022-08-21T11:22:38.197Z,34.34
2022-08-21T11:25:14.910Z,33.60
2022-08-21T11:27:47.059Z,33.03
2022-08-21T11:30:15.604Z,32.88
2022-08-21T11:33:20.799Z,32.79
2022-08-21T11:35:58.173Z,33.95
2022-08-21T11:38:36.586Z,34.04
2022-08-21T11:41:22.266Z,32.56
2022-08-21T11:43:55.995Z,32.72
2022-08-21T11:46:30.155Z,33.56
2022-08-21T11:49:21.764Z,34.18
2022-08-21T11:51:55.667Z,35.43
2022-08-21T11:54:30.828Z,33.45
2022-08-21T11:57:05.418Z,34.86
2022-08-21T11:59:41.061Z,34.82
2022-08-21T12:02:15.549Z,35.59
2022-08-21T12:04:50.017Z,33.68
2022-08-21T12:07:32.474Z,33.77
2022-08-21T12:10:02.565Z,34.21
2022-08-21T12:12:32.751Z,34.28
2022-08-21T12:15:25.722Z,32.86
2022-08-21T12:17:57.915Z,33.47
2022-08-21T12:20:40.189Z,34.49
2022-08-21T12:23:28.866Z,34.64
2022-08-21T12:26:23.884Z,33.77
2022-08-21T12:28:51.962Z,32.57
2022-08-21T12:31:26.352Z,33.72
2022-08-21T12:34:00.029Z,33.25
2022-08-21T12:36:40.305Z,33.11
2022-08-21T12:39:15.653Z,33.82
2022-08-21T12:41:49.996Z,33.93
2022-08-21T12:44:22.560Z,33.93
2022-08-21T12:46:57.753Z,33.12
2022-08-21T12:49:32.703Z,33.74
2022-08-21T12:52:07.231Z,32.95
2022-08-21T12:54:42.437Z,32.86
2022-08-21T12:57:20.956Z,32.55
2022-08-21T12:59:55.423Z,33.14
2022-08-21T13:02:26.901Z,32.42
2022-08-21T13:04:57.529Z,33.41
2022-08-21T13:07:31.319Z,33.86
2022-08-21T13:10:02.012Z,32.06
2022-08-21T13:12:32.541Z,32.96
2022-08-21T13:15:04.153Z,33.27
2022-08-21T13:17:40.827Z,33.92
2022-08-21T13:20:21.021Z,34.56
2022-08-21T13:22:48.927Z,33.20
2022-08-21T13:25:19.596Z,33.30
2022-08-21T13:28:03.192Z,33.75
2022-08-21T13:30:32.256Z,33.93
2022-08-21T13:33:02.064Z,33.78
2022-08-21T13:35:36.908Z,34.43
2022-08-21T13:38:07.478Z,32.63
2022-08-21T13:40:48.028Z,32.78
2022-08-21T13:43:21.051Z,33.31
2022-08-21T13:45:51.339Z,31.66
2022-08-21T13:48:20.259Z,32.02
2022-08-21T13:50:49.288Z,31.98
2022-08-21T13:53:25.683Z,32.63
2022-08-21T13:55:57.402Z,32.98
2022-08-21T13:58:32.168Z,33.00
2022-08-21T14:01:04.811Z,33.11
2022-08-21T14:03:39.207Z,32.75
2022-08-21T14:06:14.612Z,33.34
2022-08-21T14:08:44.008Z,32.76
2022-08-21T14:11:14.594Z,30.97
2022-08-21T14:13:46.502Z,31.23
2022-08-21T14:16:19.966Z,30.42
2022-08-21T14:18:52.026Z,31.29
2022-08-21T14:21:32.143Z,30.30
2022-08-21T14:24:10.187Z,30.18
2022-08-21T14:26:45.892Z,30.28
2022-08-21T14:29:17.410Z,29.56
2022-08-21T14:31:50.935Z,29.66
2022-08-21T14:34:20.070Z,29.36
2022-08-21T14:36:49.614Z,29.44
2022-08-21T14:39:17.682Z,29.04
2022-08-21T14:41:47.597Z,29.28
2022-08-21T14:44:18.565Z,29.03
2022-08-21T14:46:55.826Z,29.17
2022-08-21T14:49:28.307Z,29.32
2022-08-21T14:51:58.323Z,29.11
2022-08-21T14:54:29.663Z,28.97
2022-08-21T14:57:01.312Z,29.05
2022-08-21T14:59:31.398Z,28.97
2022-08-21T15:01:59.126Z,29.31
2022-08-21T15:04:27.148Z,29.18
2022-08-21T15:06:54.977Z,28.75
2022-08-21T15:09:23.064Z,28.47
2022-08-21T15:11:50.946Z,28.85
2022-08-21T15:14:22.140Z,29.16
2022-08-21T15:16:53.142Z,29.40
2022-08-21T15:19:21.421Z,29.28
2022-08-21T15:21:49.545Z,28.88
2022-08-21T15:24:17.452Z,28.60
2022-08-21T15:26:46.215Z,28.69
2022-08-21T15:29:14.073Z,28.61
2022-08-21T15:31:55.654Z,28.41
2022-08-21T15:34:27.085Z,28.44
2022-08-21T15:36:56.262Z,28.23
2022-08-21T15:39:30.298Z,28.11
2022-08-21T15:42:02.751Z,28.00
2022-08-21T15:44:39.392Z,27.82
2022-08-21T15:47:14.226Z,27.90
2022-08-21T15:49:43.617Z,27.75
2022-08-21T15:52:11.496Z,27.70
2022-08-21T15:54:39.737Z,27.96
2022-08-21T15:57:07.700Z,27.54
2022-08-21T15:59:43.152Z,27.69
2022-08-21T16:02:17.049Z,27.33
2022-08-21T16:04:45.453Z,27.22
2022-08-21T16:07:13.459Z,27.05
2022-08-21T16:09:41.490Z,27.25
2022-08-21T16:12:11.745Z,27.18
2022-08-21T16:14:39.732Z,27.15
2022-08-21T16:17:08.396Z,27.17
2022-08-21T16:19:39.542Z,27.33
2022-08-21T16:22:07.426Z,27.15
2022-08-21T16:24:36.454Z,27.34
2022-08-21T16:27:08.111Z,27.40
2022-08-21T16:29:39.511Z,27.60
2022-08-21T16:32:08.969Z,27.55
2022-08-21T16:34:41.454Z,27.66
2022-08-21T16:37:09.949Z,27.56
2022-08-21T16:39:37.937Z,27.60
2022-08-21T16:42:06.847Z,27.43
2022-08-21T16:44:35.533Z,27.32
2022-08-21T16:47:05.593Z,27.35
2022-08-21T16:49:33.868Z,27.45
2022-08-21T16:52:03.852Z,26.92
2022-08-21T16:54:31.955Z,26.91
2022-08-21T16:57:01.585Z,27.13
2022-08-21T16:59:29.399Z,27.00
2022-08-21T17:01:57.806Z,26.96
2022-08-21T17:04:25.917Z,26.91
2022-08-21T17:06:54.003Z,26.85
2022-08-21T17:09:23.311Z,26.90
2022-08-21T17:11:51.527Z,26.56
2022-08-21T17:14:22.965Z,26.50
2022-08-21T17:16:53.106Z,26.26
2022-08-21T17:19:22.353Z,26.41
2022-08-21T17:21:50.292Z,26.16
2022-08-21T17:24:18.902Z,26.13
2022-08-21T17:26:49.054Z,25.95
2022-08-21T17:29:17.469Z,25.93
2022-08-21T17:31:47.111Z,25.85
2022-08-21T17:34:15.616Z,26.09
2022-08-21T17:36:43.480Z,26.15
2022-08-21T17:39:12.839Z,26.31
2022-08-21T17:41:43.867Z,26.14
2022-08-21T17:44:21.871Z,26.00
2022-08-21T17:46:49.988Z,25.98
2022-08-21T17:49:17.820Z,26.05
2022-08-21T17:51:45.663Z,25.87
2022-08-21T17:54:13.534Z,25.93
2022-08-21T17:56:43.303Z,25.74
2022-08-21T17:59:13.313Z,25.71
2022-08-21T18:01:44.232Z,25.54
2022-08-21T18:04:12.802Z,25.38
2022-08-21T18:06:41.872Z,25.51
2022-08-21T18:09:10.021Z,25.40
2022-08-21T18:11:38.503Z,25.19
2022-08-21T18:14:07.955Z,25.02
2022-08-21T18:16:38.483Z,24.98
2022-08-21T18:19:11.769Z,24.94
2022-08-21T18:21:39.581Z,24.77
2022-08-21T18:24:07.813Z,24.75
2022-08-21T18:26:40.268Z,24.63
2022-08-21T18:29:11.072Z,24.39
2022-08-21T18:31:43.579Z,24.36
2022-08-21T18:34:20.301Z,24.45
2022-08-21T18:36:49.376Z,24.46
2022-08-21T18:39:36.029Z,24.43
2022-08-21T18:42:09.312Z,24.30
2022-08-21T18:44:37.465Z,24.25
2022-08-21T18:47:14.309Z,24.07
2022-08-21T18:49:42.507Z,24.05
2022-08-21T18:52:10.750Z,23.92
2022-08-21T18:54:50.195Z,23.81
2022-08-21T18:57:20.955Z,23.76
2022-08-21T18:59:49.115Z,23.78
2022-08-21T19:02:18.516Z,23.83
2022-08-21T19:04:46.971Z,23.77
2022-08-21T19:07:19.775Z,23.80
2022-08-21T19:10:02.174Z,23.68
2022-08-21T19:12:36.664Z,23.77
2022-08-21T19:15:07.931Z,23.76
2022-08-21T19:17:37.855Z,23.69
2022-08-21T19:23:01.061Z,23.55
2022-08-21T19:28:31.848Z,23.46
2022-08-21T19:31:04.720Z,23.39
2022-08-21T19:33:37.393Z,23.42
2022-08-21T19:36:06.467Z,23.27
2022-08-21T19:38:34.640Z,23.24
2022-08-21T19:41:03.518Z,23.17
2022-08-21T19:43:34.989Z,23.09
2022-08-21T19:46:02.896Z,23.07
2022-08-21T19:48:31.300Z,23.19
2022-08-21T19:51:00.527Z,23.13
2022-08-21T19:53:28.296Z,22.96
2022-08-21T19:55:56.228Z,22.92
2022-08-21T19:58:35.479Z,23.01
2022-08-21T20:01:14.122Z,22.89
2022-08-21T20:03:44.844Z,22.86
2022-08-21T20:06:24.443Z,22.98
2022-08-21T20:08:54.565Z,22.99
2022-08-21T20:11:28.444Z,22.85
2022-08-21T20:14:00.689Z,22.80
2022-08-21T20:16:29.862Z,22.63
2022-08-21T20:18:58.421Z,22.50
2022-08-21T20:21:27.704Z,22.43
2022-08-21T20:23:55.966Z,22.34
2022-08-21T20:26:24.366Z,22.38
2022-08-21T20:28:53.515Z,22.42
2022-08-21T20:31:24.242Z,22.37
2022-08-21T20:33:52.801Z,22.34
2022-08-21T20:36:22.528Z,22.24
2022-08-21T20:38:52.815Z,22.25
2022-08-21T20:41:31.045Z,22.18
2022-08-21T20:44:00.802Z,22.28
2022-08-21T20:46:32.262Z,22.38
2022-08-21T20:49:01.930Z,22.31
2022-08-21T20:51:36.480Z,22.31
2022-08-21T20:54:21.443Z,22.23
2022-08-21T20:56:53.116Z,22.14
2022-08-21T20:59:40.980Z,22.03
2022-08-21T21:02:21.643Z,21.96
2022-08-21T21:04:53.483Z,22.01
2022-08-21T21:07:26.309Z,22.01
2022-08-21T21:09:58.264Z,21.88
2022-08-21T21:12:32.390Z,21.91
2022-08-21T21:15:10.252Z,21.93
2022-08-21T21:17:44.283Z,21.76
2022-08-21T21:20:18.222Z,21.77
2022-08-21T21:22:52.098Z,21.69
2022-08-21T21:25:39.773Z,21.65
2022-08-21T21:28:12.803Z,21.57
2022-08-21T21:30:46.481Z,21.58
2022-08-21T21:33:16.701Z,21.50
2022-08-21T21:35:49.648Z,21.45
2022-08-21T21:38:22.928Z,21.47
2022-08-21T21:41:03.672Z,21.46
2022-08-21T21:43:56.539Z,21.48
2022-08-21T21:46:35.923Z,21.51
2022-08-21T21:49:21.541Z,21.41
2022-08-21T21:52:02.128Z,21.33
2022-08-21T21:54:51.930Z,21.27
2022-08-21T21:57:36.655Z,21.11
2022-08-21T22:00:10.733Z,21.05
2022-08-21T22:02:50.951Z,21.03
2022-08-21T22:05:38.210Z,21.06
2022-08-21T22:08:13.812Z,21.00
2022-08-21T22:10:53.517Z,20.81
2022-08-21T22:13:33.447Z,20.75
2022-08-21T22:16:07.518Z,20.82
2022-08-21T22:21:34.511Z,20.91
2022-08-21T22:24:07.094Z,20.77
2022-08-21T22:26:44.148Z,20.62
2022-08-21T22:29:21.567Z,20.64
2022-08-21T22:35:02.387Z,20.65
2022-08-21T22:37:36.357Z,20.58
2022-08-21T22:40:06.187Z,20.52
2022-08-21T22:42:34.061Z,20.46
2022-08-21T22:45:12.105Z,20.52
2022-08-21T22:47:43.872Z,20.50
2022-08-21T22:50:20.441Z,20.44
2022-08-21T22:52:52.830Z,20.36
2022-08-21T22:55:27.028Z,20.33
2022-08-21T22:58:07.971Z,20.21
2022-08-21T23:00:54.074Z,20.01
2022-08-21T23:03:31.848Z,20.03
2022-08-21T23:06:03.255Z,19.90
2022-08-21T23:08:40.976Z,19.81
2022-08-21T23:11:17.205Z,19.79
2022-08-21T23:13:47.597Z,19.83
2022-08-21T23:16:34.219Z,19.89
2022-08-21T23:19:12.764Z,19.93
2022-08-21T23:21:48.548Z,19.91
2022-08-21T23:24:38.554Z,19.68
2022-08-21T23:27:24.412Z,19.63
2022-08-21T23:30:01.570Z,19.69
2022-08-21T23:33:00.402Z,19.67
2022-08-21T23:35:48.459Z,19.64
2022-08-21T23:38:30.165Z,19.58
2022-08-21T23:41:11.092Z,19.52
2022-08-21T23:43:52.646Z,19.48
2022-08-21T23:46:53.890Z,19.45
2022-08-21T23:49:34.861Z,19.39
2022-08-21T23:52:12.172Z,19.36
2022-08-21T23:54:57.953Z,19.33
2022-08-21T23:57:48.648Z,19.28
